Aviation Digital Data Service (ADDS)

Output produced by METARs form (0647 UTC 03 December 2016)
found at http://aviationweather.gov/adds/metars/
 
KLCH 030559Z 0306/0406 08014G21KT P6SM -RA OVC035 
     FM031400 09018G25KT 5SM -RA BR OVC015 
     FM040000 12013KT 2SM -RA BR OVC007